createdAt,value
2018-07-09T00:01:47.595Z,84.90
2018-07-09T00:03:49.703Z,85.10
2018-07-09T00:05:51.917Z,84.60
2018-07-09T00:07:54.087Z,84.90
2018-07-09T00:09:56.498Z,85.10
2018-07-09T00:11:59.565Z,85.00
2018-07-09T00:14:01.679Z,85.10
2018-07-09T00:16:03.894Z,85.10
2018-07-09T00:18:06.022Z,85.50
2018-07-09T00:20:14.818Z,85.20
2018-07-09T00:22:16.919Z,85.40
2018-07-09T00:24:19.213Z,85.70
2018-07-09T00:26:21.326Z,85.30
2018-07-09T00:28:24.028Z,85.10
2018-07-09T00:30:26.488Z,85.30
2018-07-09T00:32:28.604Z,85.20
2018-07-09T00:34:30.714Z,85.20
2018-07-09T00:36:32.812Z,85.10
2018-07-09T00:38:34.900Z,85.30
2018-07-09T00:40:37.117Z,85.60
2018-07-09T00:42:39.231Z,86.20
2018-07-09T00:44:41.350Z,86.30
2018-07-09T00:46:43.446Z,85.80
2018-07-09T00:48:45.676Z,85.50
2018-07-09T00:50:47.867Z,85.50
2018-07-09T00:52:50.043Z,85.80
2018-07-09T00:54:52.179Z,85.30
2018-07-09T00:56:54.280Z,85.70
2018-07-09T00:58:56.526Z,85.60
2018-07-09T01:00:58.606Z,85.80
2018-07-09T01:03:00.689Z,85.70
2018-07-09T01:05:02.804Z,86.00
2018-07-09T01:07:04.945Z,86.00
2018-07-09T01:09:07.055Z,86.00
2018-07-09T01:11:20.623Z,86.10
2018-07-09T01:13:53.558Z,86.50
2018-07-09T01:15:56.595Z,86.40
2018-07-09T01:17:58.674Z,86.10
2018-07-09T01:20:00.786Z,86.20
2018-07-09T01:22:03.539Z,86.20
2018-07-09T01:24:05.645Z,86.10
2018-07-09T01:26:08.279Z,86.00
2018-07-09T01:28:10.393Z,86.40
2018-07-09T01:30:13.906Z,86.20
2018-07-09T01:32:15.987Z,86.40
2018-07-09T01:34:18.075Z,86.20
2018-07-09T01:36:20.150Z,86.20
2018-07-09T01:38:22.210Z,86.00
2018-07-09T01:40:24.290Z,86.10
2018-07-09T01:42:26.394Z,86.20
2018-07-09T01:44:28.470Z,85.80
2018-07-09T01:46:30.581Z,85.90
2018-07-09T01:48:32.865Z,85.90
2018-07-09T01:50:34.977Z,86.20
2018-07-09T01:52:37.855Z,86.20
2018-07-09T01:54:39.942Z,86.00
2018-07-09T01:56:42.026Z,85.70
2018-07-09T01:58:44.137Z,85.50
2018-07-09T02:00:46.247Z,85.90
2018-07-09T02:02:48.326Z,86.00
2018-07-09T02:04:50.399Z,86.10
2018-07-09T02:06:52.650Z,86.70
2018-07-09T02:08:54.749Z,86.30
2018-07-09T02:10:56.837Z,86.30
2018-07-09T02:12:58.939Z,86.70
2018-07-09T02:15:01.011Z,86.30
2018-07-09T02:17:03.113Z,86.50
2018-07-09T02:19:05.206Z,86.60
2018-07-09T02:21:18.230Z,86.50
2018-07-09T02:23:20.316Z,86.50
2018-07-09T02:25:23.366Z,86.80
2018-07-09T02:27:25.742Z,87.40
2018-07-09T02:29:27.818Z,86.70
2018-07-09T02:31:29.906Z,87.10
2018-07-09T02:33:31.994Z,87.10
2018-07-09T02:35:34.114Z,87.30
2018-07-09T02:37:36.193Z,86.80
2018-07-09T02:39:38.275Z,86.50
2018-07-09T02:41:40.421Z,86.60
2018-07-09T02:43:42.501Z,86.60
2018-07-09T02:45:44.613Z,86.60
2018-07-09T02:47:47.149Z,86.40
2018-07-09T02:49:49.247Z,86.20
2018-07-09T02:51:51.353Z,86.70
2018-07-09T02:53:53.470Z,86.60
2018-07-09T02:55:55.557Z,87.60
2018-07-09T02:57:57.686Z,87.20
2018-07-09T02:59:59.763Z,86.40
2018-07-09T03:02:01.875Z,86.20
2018-07-09T03:04:03.984Z,86.40
2018-07-09T03:06:06.090Z,86.40
2018-07-09T03:08:08.178Z,86.30
2018-07-09T03:10:10.262Z,86.40
2018-07-09T03:12:12.378Z,86.40
2018-07-09T03:14:14.458Z,86.60
2018-07-09T03:16:16.593Z,86.60
2018-07-09T03:18:18.699Z,86.60
2018-07-09T03:20:20.766Z,86.60
2018-07-09T03:22:22.846Z,86.90
2018-07-09T03:24:24.922Z,87.10
2018-07-09T03:26:27.012Z,86.80
2018-07-09T03:28:29.093Z,86.80
2018-07-09T03:30:31.201Z,86.80
2018-07-09T03:32:33.394Z,87.40
2018-07-09T03:36:44.216Z,87.30
2018-07-09T03:38:46.300Z,87.10
2018-07-09T03:40:48.387Z,86.90
2018-07-09T03:42:50.501Z,86.60
2018-07-09T03:44:52.587Z,86.80
2018-07-09T03:46:54.658Z,86.60
2018-07-09T03:48:56.889Z,86.70
2018-07-09T03:50:58.996Z,87.40
2018-07-09T03:53:01.092Z,87.30
2018-07-09T03:55:03.289Z,86.90
2018-07-09T03:57:05.474Z,86.90
2018-07-09T03:59:07.562Z,87.30
2018-07-09T04:01:09.671Z,87.20
2018-07-09T04:03:11.770Z,88.50
2018-07-09T04:05:13.853Z,88.30
2018-07-09T04:07:15.954Z,88.30
2018-07-09T04:09:18.020Z,88.10
2018-07-09T04:11:20.120Z,88.00
2018-07-09T04:13:22.224Z,87.40
2018-07-09T04:15:24.294Z,86.80
2018-07-09T04:17:26.375Z,86.90
2018-07-09T04:19:28.569Z,87.20
2018-07-09T04:21:30.656Z,87.10
2018-07-09T04:23:32.729Z,87.20
2018-07-09T04:25:34.810Z,87.00
2018-07-09T04:27:36.897Z,86.90
2018-07-09T04:29:39.003Z,86.70
2018-07-09T04:31:41.122Z,87.10
2018-07-09T04:33:43.195Z,87.50
2018-07-09T04:35:45.309Z,87.20
2018-07-09T04:37:47.434Z,86.90
2018-07-09T04:39:49.433Z,87.00
2018-07-09T04:41:51.977Z,86.80
2018-07-09T04:43:54.080Z,86.80
2018-07-09T04:45:56.176Z,87.20
2018-07-09T04:47:58.262Z,87.40
2018-07-09T04:50:00.366Z,87.90
2018-07-09T04:52:02.474Z,87.60
2018-07-09T04:54:04.572Z,87.30
2018-07-09T04:56:06.734Z,88.40
2018-07-09T04:58:08.821Z,88.70
2018-07-09T05:00:10.909Z,88.00
2018-07-09T05:02:12.983Z,88.10
2018-07-09T05:04:15.054Z,87.90
2018-07-09T05:06:17.162Z,87.70
2018-07-09T05:08:19.247Z,87.90
2018-07-09T05:10:21.337Z,87.70
2018-07-09T05:12:23.417Z,88.20
2018-07-09T05:14:25.527Z,88.30
2018-07-09T05:16:27.614Z,87.50
2018-07-09T05:18:29.673Z,87.30
2018-07-09T05:20:31.775Z,88.40
2018-07-09T05:22:33.845Z,89.20
2018-07-09T05:24:35.935Z,89.10
2018-07-09T05:26:38.251Z,88.40
2018-07-09T05:28:40.338Z,88.70
2018-07-09T05:30:42.422Z,88.90
2018-07-09T05:32:44.519Z,89.70
2018-07-09T05:34:46.601Z,89.00
2018-07-09T05:36:48.809Z,88.70
2018-07-09T05:38:50.926Z,89.00
2018-07-09T05:40:53.174Z,88.60
2018-07-09T05:42:55.294Z,88.40
2018-07-09T05:45:00.279Z,89.00
2018-07-09T05:47:03.641Z,88.50
2018-07-09T05:49:10.465Z,88.00
2018-07-09T05:51:15.692Z,88.10
2018-07-09T05:53:18.708Z,89.00
2018-07-09T05:55:22.343Z,88.80
2018-07-09T05:57:25.186Z,89.30
2018-07-09T05:59:27.645Z,88.90
2018-07-09T06:01:30.011Z,89.10
2018-07-09T06:03:32.426Z,89.00
2018-07-09T06:05:35.495Z,89.70
2018-07-09T06:07:37.894Z,89.30
2018-07-09T06:09:40.301Z,89.40
2018-07-09T06:11:42.709Z,89.20
2018-07-09T06:13:45.044Z,88.60
2018-07-09T06:15:47.285Z,88.10
2018-07-09T06:17:51.708Z,88.10
2018-07-09T06:19:53.953Z,88.00
2018-07-09T06:21:56.231Z,87.90
2018-07-09T06:23:58.778Z,87.80
2018-07-09T06:26:01.172Z,87.90
2018-07-09T06:28:03.506Z,87.80
2018-07-09T06:30:05.942Z,88.20
2018-07-09T06:32:08.247Z,88.90
2018-07-09T06:34:10.494Z,88.40
2018-07-09T06:36:12.951Z,88.20
2018-07-09T06:38:15.346Z,88.20
2018-07-09T06:40:23.049Z,88.20
2018-07-09T06:42:25.473Z,87.60
2018-07-09T06:44:28.200Z,87.40
2018-07-09T06:46:31.100Z,86.80
2018-07-09T06:48:33.449Z,87.00
2018-07-09T06:50:36.695Z,86.90
2018-07-09T06:52:38.977Z,86.60
2018-07-09T06:54:41.461Z,86.30
2018-07-09T06:56:43.935Z,86.30
2018-07-09T06:58:46.290Z,86.10
2018-07-09T07:00:49.108Z,86.10
2018-07-09T07:02:51.466Z,86.20
2018-07-09T07:04:53.756Z,86.10
2018-07-09T07:06:56.047Z,86.30
2018-07-09T07:08:58.427Z,86.20
2018-07-09T07:11:00.714Z,86.20
2018-07-09T07:13:03.375Z,86.80
2018-07-09T07:15:05.799Z,87.30
2018-07-09T07:17:09.940Z,87.60
2018-07-09T07:19:12.455Z,87.70
2018-07-09T07:21:14.942Z,87.70
2018-07-09T07:23:18.431Z,87.80
2018-07-09T07:25:21.780Z,87.00
2018-07-09T07:27:24.188Z,87.00
2018-07-09T07:29:26.558Z,86.20
2018-07-09T07:31:28.882Z,86.00
2018-07-09T07:33:31.376Z,85.30
2018-07-09T07:35:33.842Z,85.10
2018-07-09T07:37:36.303Z,84.70
2018-07-09T07:39:38.703Z,84.70
2018-07-09T07:41:41.503Z,84.40
2018-07-09T07:43:43.871Z,83.90
2018-07-09T07:45:46.292Z,83.60
2018-07-09T07:47:48.863Z,83.90
2018-07-09T07:49:51.226Z,83.60
2018-07-09T07:51:53.707Z,83.40
2018-07-09T07:53:56.124Z,82.50
2018-07-09T07:55:58.628Z,82.00
2018-07-09T07:58:03.252Z,81.40
2018-07-09T08:00:06.968Z,81.50
2018-07-09T08:02:10.428Z,81.40
2018-07-09T08:04:13.783Z,82.20
2018-07-09T08:06:17.330Z,82.10
2018-07-09T08:08:21.055Z,81.90
2018-07-09T08:10:23.442Z,81.40
2018-07-09T08:13:27.716Z,81.50
2018-07-09T08:14:30.902Z,81.00
2018-07-09T08:16:33.308Z,80.90
2018-07-09T08:18:35.762Z,80.70
2018-07-09T08:20:38.218Z,79.10
2018-07-09T08:22:41.776Z,78.60
2018-07-09T08:24:45.799Z,78.20
2018-07-09T08:26:48.287Z,77.50
2018-07-09T08:28:50.757Z,77.40
2018-07-09T08:30:53.834Z,77.50
2018-07-09T08:32:57.684Z,77.20
2018-07-09T08:35:00.037Z,77.40
2018-07-09T08:37:02.350Z,78.10
2018-07-09T08:39:05.264Z,77.60
2018-07-09T08:41:09.318Z,76.40
2018-07-09T08:43:11.784Z,75.40
2018-07-09T08:47:53.199Z,75.60
2018-07-09T08:49:55.801Z,75.30
2018-07-09T08:52:00.011Z,75.00
2018-07-09T08:54:03.227Z,75.20
2018-07-09T08:56:06.451Z,73.80
2018-07-09T08:58:09.863Z,74.00
2018-07-09T09:00:13.363Z,74.10
2018-07-09T09:02:16.512Z,73.30
2018-07-09T09:04:19.775Z,73.10
2018-07-09T09:06:23.202Z,73.20
2018-07-09T09:08:29.391Z,73.80
2018-07-09T09:10:31.869Z,73.80
2018-07-09T09:12:34.406Z,73.80
2018-07-09T09:14:36.925Z,74.30
2018-07-09T09:16:39.481Z,75.20
2018-07-09T09:18:43.586Z,75.20
2018-07-09T09:20:47.675Z,75.40
2018-07-09T09:22:50.279Z,75.40
2018-07-09T09:24:54.295Z,74.80
2018-07-09T09:26:57.170Z,73.90
2018-07-09T09:29:00.442Z,73.20
2018-07-09T09:31:05.132Z,72.10
2018-07-09T09:33:07.639Z,72.80
2018-07-09T09:35:10.016Z,72.30
2018-07-09T09:37:12.375Z,70.20
2018-07-09T09:39:14.803Z,69.00
2018-07-09T09:41:17.255Z,69.10
2018-07-09T09:43:21.579Z,69.10
2018-07-09T09:45:24.104Z,69.00
2018-07-09T09:47:27.578Z,68.40
2018-07-09T09:49:30.338Z,69.20
2018-07-09T09:51:32.854Z,69.30
2018-07-09T09:53:38.006Z,69.80
2018-07-09T09:55:40.983Z,69.50
2018-07-09T09:57:43.489Z,68.90
2018-07-09T09:59:46.327Z,67.90
2018-07-09T10:01:48.909Z,68.60
2018-07-09T10:03:51.640Z,68.00
2018-07-09T10:05:55.117Z,67.90
2018-07-09T10:07:57.479Z,69.90
2018-07-09T10:09:59.868Z,69.00
2018-07-09T10:12:02.274Z,67.60
2018-07-09T10:14:04.834Z,67.00
2018-07-09T10:16:07.275Z,66.10
2018-07-09T10:20:49.159Z,65.10
2018-07-09T10:22:58.503Z,66.50
2018-07-09T10:25:01.617Z,67.00
2018-07-09T10:27:04.148Z,66.60
2018-07-09T10:29:07.479Z,65.30
2018-07-09T10:31:09.864Z,65.50
2018-07-09T10:33:13.182Z,66.90
2018-07-09T10:35:15.632Z,67.60
2018-07-09T10:37:18.094Z,67.80
2018-07-09T10:39:20.735Z,67.60
2018-07-09T10:41:23.134Z,68.00
2018-07-09T10:43:26.586Z,68.00
2018-07-09T10:45:28.901Z,68.60
2018-07-09T10:47:31.382Z,68.50
2018-07-09T10:49:33.875Z,68.50
2018-07-09T10:51:36.306Z,69.60
2018-07-09T10:53:45.463Z,70.60
2018-07-09T10:55:47.852Z,70.30
2018-07-09T10:57:50.346Z,69.80
2018-07-09T10:59:52.768Z,70.00
2018-07-09T11:01:55.178Z,69.40
2018-07-09T11:03:57.640Z,69.00
2018-07-09T11:06:00.191Z,68.60
2018-07-09T11:08:02.567Z,69.20
2018-07-09T11:10:05.003Z,68.10
2018-07-09T11:12:07.296Z,67.90
2018-07-09T11:14:09.624Z,67.70
2018-07-09T11:16:11.896Z,67.70
2018-07-09T11:18:14.242Z,66.80
2018-07-09T11:20:16.591Z,66.30
2018-07-09T11:22:19.024Z,65.80
2018-07-09T11:24:21.390Z,66.20
2018-07-09T11:26:23.777Z,67.20
2018-07-09T11:28:26.294Z,67.70
2018-07-09T11:30:28.722Z,66.80
2018-07-09T11:32:31.069Z,66.10
2018-07-09T11:34:33.478Z,66.40
2018-07-09T11:36:35.872Z,66.60
2018-07-09T11:38:38.256Z,66.50
2018-07-09T11:40:40.606Z,66.80
2018-07-09T11:42:42.904Z,66.40
2018-07-09T11:44:45.182Z,67.00
2018-07-09T11:46:47.516Z,66.60
2018-07-09T11:48:49.922Z,67.50
2018-07-09T11:50:52.647Z,65.60
2018-07-09T11:52:55.062Z,64.40
2018-07-09T11:54:57.571Z,64.80
2018-07-09T11:56:59.946Z,64.80
2018-07-09T11:59:02.361Z,65.30
2018-07-09T12:01:04.723Z,65.90
2018-07-09T12:03:07.148Z,65.50
2018-07-09T12:05:09.839Z,65.80
2018-07-09T12:07:12.188Z,65.90
2018-07-09T12:09:15.491Z,65.20
2018-07-09T12:11:17.909Z,65.10
2018-07-09T12:13:20.317Z,65.20
2018-07-09T12:15:22.879Z,66.60
2018-07-09T12:17:25.467Z,66.50
2018-07-09T12:19:27.844Z,66.10
2018-07-09T12:21:30.271Z,66.60
2018-07-09T12:23:32.673Z,66.60
2018-07-09T12:25:35.050Z,66.50
2018-07-09T12:27:37.306Z,66.70
2018-07-09T12:29:40.642Z,66.80
2018-07-09T12:31:49.670Z,67.00
2018-07-09T12:33:53.540Z,67.30
2018-07-09T12:35:55.940Z,67.10
2018-07-09T12:37:58.927Z,67.20
2018-07-09T12:40:01.991Z,68.30
2018-07-09T12:42:04.283Z,68.50
2018-07-09T12:44:07.543Z,69.10
2018-07-09T12:46:10.032Z,70.00
2018-07-09T12:48:14.623Z,69.70
2018-07-09T12:50:17.246Z,69.80
2018-07-09T12:52:19.703Z,69.70
2018-07-09T12:54:27.677Z,69.70
2018-07-09T12:56:33.024Z,69.20
2018-07-09T12:58:35.535Z,69.10
2018-07-09T13:00:38.848Z,69.70
2018-07-09T13:02:42.251Z,70.50
2018-07-09T13:04:44.591Z,70.30
2018-07-09T13:06:47.882Z,70.40
2018-07-09T13:08:50.771Z,70.00
2018-07-09T13:10:53.109Z,69.00
2018-07-09T13:12:55.505Z,68.40
2018-07-09T13:14:59.034Z,67.20
2018-07-09T13:17:01.382Z,67.20
2018-07-09T13:19:03.697Z,67.20
2018-07-09T13:21:06.964Z,67.10
2018-07-09T13:23:09.209Z,66.10
2018-07-09T13:25:12.019Z,65.90
2018-07-09T13:27:14.287Z,66.50
2018-07-09T13:29:16.530Z,66.20
2018-07-09T13:31:18.792Z,66.20
2018-07-09T13:33:21.073Z,66.20
2018-07-09T13:35:23.406Z,65.80
2018-07-09T13:37:25.923Z,65.70
2018-07-09T13:39:28.443Z,65.80
2018-07-09T13:41:30.848Z,67.00
2018-07-09T13:43:33.220Z,66.90
2018-07-09T13:45:35.616Z,66.80
2018-07-09T13:47:37.967Z,67.20
2018-07-09T13:49:40.438Z,67.80
2018-07-09T13:51:42.755Z,68.00
2018-07-09T13:53:45.067Z,68.60
2018-07-09T13:55:47.804Z,68.70
2018-07-09T13:57:50.082Z,69.00
2018-07-09T13:59:52.499Z,69.00
2018-07-09T14:01:54.972Z,69.10
2018-07-09T14:03:57.275Z,69.10
2018-07-09T14:06:00.271Z,69.40
2018-07-09T14:08:02.659Z,70.30
2018-07-09T14:10:05.075Z,69.20
2018-07-09T14:12:07.573Z,68.70
2018-07-09T14:16:47.930Z,68.80
2018-07-09T14:18:52.648Z,67.80
2018-07-09T14:20:54.980Z,67.70
2018-07-09T14:22:57.745Z,67.90
2018-07-09T14:25:00.290Z,68.20
2018-07-09T14:27:03.038Z,67.60
2018-07-09T14:29:05.495Z,67.10
2018-07-09T14:31:08.012Z,66.50
2018-07-09T14:33:10.450Z,66.60
2018-07-09T14:35:14.084Z,66.30
2018-07-09T14:37:16.502Z,66.00
2018-07-09T14:39:18.864Z,66.40
2018-07-09T14:41:21.387Z,67.10
2018-07-09T14:43:23.802Z,67.30
2018-07-09T14:45:26.331Z,66.80
2018-07-09T14:47:29.492Z,66.90
2018-07-09T14:49:32.193Z,66.90
2018-07-09T14:51:35.490Z,66.40
2018-07-09T14:53:38.403Z,65.90
2018-07-09T14:55:40.733Z,67.00
2018-07-09T14:57:43.674Z,66.10
2018-07-09T14:59:46.354Z,66.30
2018-07-09T15:01:48.702Z,66.50
2018-07-09T15:03:51.134Z,66.80
2018-07-09T15:05:53.454Z,67.50
2018-07-09T15:07:55.890Z,68.40
2018-07-09T15:09:58.436Z,68.90
2018-07-09T15:12:00.698Z,69.40
2018-07-09T15:16:34.139Z,69.80
2018-07-09T15:18:36.615Z,69.30
2018-07-09T15:20:39.083Z,68.70
2018-07-09T15:22:41.511Z,68.20
2018-07-09T15:24:43.971Z,68.10
2018-07-09T15:26:47.318Z,68.10
2018-07-09T15:28:52.419Z,68.70
2018-07-09T15:30:56.466Z,68.30
2018-07-09T15:32:58.899Z,68.30
2018-07-09T15:35:01.257Z,68.80
2018-07-09T15:37:03.664Z,69.20
2018-07-09T15:39:05.931Z,69.90
2018-07-09T15:41:08.368Z,70.30
2018-07-09T15:43:10.686Z,70.10
2018-07-09T15:45:15.156Z,68.90
2018-07-09T15:47:18.090Z,68.30
2018-07-09T15:49:20.484Z,68.20
2018-07-09T15:51:25.094Z,68.70
2018-07-09T15:53:28.450Z,69.20
2018-07-09T15:55:30.882Z,69.30
2018-07-09T15:57:33.096Z,69.20
2018-07-09T15:59:35.793Z,69.50
2018-07-09T16:01:38.246Z,69.90
2018-07-09T16:03:40.563Z,71.20
2018-07-09T16:08:27.096Z,72.10
2018-07-09T16:10:29.836Z,72.60
2018-07-09T16:12:55.072Z,73.10
2018-07-09T16:15:11.264Z,74.20
2018-07-09T16:17:13.810Z,75.50
2018-07-09T16:19:16.261Z,74.90
2018-07-09T16:21:20.444Z,75.30
2018-07-09T16:23:22.655Z,75.40
2018-07-09T16:25:26.028Z,75.70
2018-07-09T16:27:28.346Z,75.40
2018-07-09T16:29:30.840Z,75.50
2018-07-09T16:31:33.126Z,75.30
2018-07-09T16:33:35.429Z,75.60
2018-07-09T16:35:37.726Z,76.10
2018-07-09T16:37:39.966Z,75.50
2018-07-09T16:39:42.567Z,74.60
2018-07-09T16:41:44.915Z,74.00
2018-07-09T16:46:25.734Z,73.80
2018-07-09T16:48:28.887Z,75.20
2018-07-09T16:50:31.565Z,75.50
2018-07-09T16:52:33.809Z,74.90
2018-07-09T16:54:35.934Z,74.60
2018-07-09T16:56:38.157Z,74.20
2018-07-09T16:58:40.656Z,73.60
2018-07-09T17:00:43.139Z,73.30
2018-07-09T17:02:48.753Z,71.80
2018-07-09T17:04:50.890Z,71.30
2018-07-09T17:06:53.401Z,71.20
2018-07-09T17:08:55.615Z,71.10
2018-07-09T17:10:59.766Z,70.90
2018-07-09T17:13:01.974Z,70.50
2018-07-09T17:15:04.327Z,70.80
2018-07-09T17:17:06.601Z,70.40
2018-07-09T17:19:08.858Z,70.70
2018-07-09T17:21:11.014Z,71.50
2018-07-09T17:23:20.094Z,70.60
2018-07-09T17:25:22.278Z,70.70
2018-07-09T17:27:24.470Z,71.40
2018-07-09T17:29:26.680Z,71.70
2018-07-09T17:31:28.896Z,71.80
2018-07-09T17:33:31.126Z,72.40
2018-07-09T17:35:33.333Z,72.70
2018-07-09T17:37:57.251Z,72.60
2018-07-09T17:39:59.430Z,73.30
2018-07-09T17:42:01.671Z,73.50
2018-07-09T17:44:03.979Z,73.40
2018-07-09T17:46:06.127Z,73.50
2018-07-09T17:48:08.338Z,73.70
2018-07-09T17:50:10.603Z,73.30
2018-07-09T17:52:12.718Z,73.20
2018-07-09T17:54:14.876Z,75.00
2018-07-09T17:56:17.210Z,74.90
2018-07-09T17:58:19.426Z,74.30
2018-07-09T18:00:21.622Z,74.90
2018-07-09T18:02:23.966Z,74.50
2018-07-09T18:04:26.174Z,75.50
2018-07-09T18:06:28.372Z,77.10
2018-07-09T18:08:30.513Z,76.70
2018-07-09T18:10:32.693Z,76.30
2018-07-09T18:12:34.926Z,76.10
2018-07-09T18:14:37.158Z,77.80
2018-07-09T18:16:39.290Z,77.20
2018-07-09T18:18:41.491Z,77.00
2018-07-09T18:20:43.688Z,77.20
2018-07-09T18:22:45.859Z,77.60
2018-07-09T18:24:48.310Z,77.00
2018-07-09T18:26:51.016Z,76.50
2018-07-09T18:28:53.278Z,77.60
2018-07-09T18:30:55.550Z,78.30
2018-07-09T18:32:57.818Z,78.50
2018-07-09T18:34:59.977Z,77.90
2018-07-09T18:37:02.135Z,77.50
2018-07-09T18:39:05.270Z,78.00
2018-07-09T18:41:07.455Z,77.70
2018-07-09T18:43:09.627Z,78.10
2018-07-09T18:45:11.962Z,78.30
2018-07-09T18:47:14.152Z,78.10
2018-07-09T18:51:54.590Z,77.60
2018-07-09T18:53:57.642Z,77.70
2018-07-09T18:55:59.784Z,77.60
2018-07-09T18:58:01.908Z,77.90
2018-07-09T19:00:04.547Z,78.40
2018-07-09T19:02:06.757Z,78.40
2018-07-09T19:04:09.134Z,78.00
2018-07-09T19:06:19.802Z,77.60
2018-07-09T19:08:21.949Z,77.80
2018-07-09T19:10:24.148Z,77.30
2018-07-09T19:12:32.982Z,77.00
2018-07-09T19:14:42.795Z,77.20
2018-07-09T19:16:56.481Z,77.00
2018-07-09T19:19:10.154Z,76.50
2018-07-09T19:21:27.087Z,76.40
2018-07-09T19:23:28.315Z,77.80
2018-07-09T19:25:29.565Z,77.30
2018-07-09T19:27:30.782Z,77.70
2018-07-09T19:29:32.061Z,77.20
2018-07-09T19:31:33.320Z,77.00
2018-07-09T19:33:34.555Z,77.00
2018-07-09T19:35:35.843Z,76.70
2018-07-09T19:37:37.445Z,77.20
2018-07-09T19:39:38.406Z,77.10
2018-07-09T19:41:39.840Z,77.20
2018-07-09T19:43:41.218Z,77.70
2018-07-09T19:45:42.533Z,77.50
2018-07-09T19:47:45.953Z,78.40
2018-07-09T19:49:47.237Z,78.60
2018-07-09T19:51:48.745Z,78.60
2018-07-09T19:53:50.465Z,79.00
2018-07-09T19:55:51.782Z,78.40
2018-07-09T19:57:53.057Z,78.20
2018-07-09T19:59:54.298Z,78.50
2018-07-09T20:01:55.534Z,78.50
2018-07-09T20:03:56.904Z,79.00
2018-07-09T20:05:58.570Z,78.60
2018-07-09T20:08:00.154Z,78.40
2018-07-09T20:10:07.037Z,78.30
2018-07-09T20:12:14.120Z,79.20
2018-07-09T20:14:21.062Z,79.20
2018-07-09T20:16:27.914Z,79.10
2018-07-09T20:18:29.308Z,80.00
2018-07-09T20:20:31.144Z,79.70
2018-07-09T20:22:32.397Z,80.10
2018-07-09T20:24:33.766Z,80.70
2018-07-09T20:26:35.005Z,81.60
2018-07-09T20:28:36.234Z,81.40
2018-07-09T20:30:37.542Z,81.30
2018-07-09T20:32:38.908Z,81.70
2018-07-09T20:34:40.110Z,81.40
2018-07-09T20:36:41.350Z,80.90
2018-07-09T20:38:42.630Z,80.70
2018-07-09T20:40:43.861Z,80.30
2018-07-09T20:42:45.118Z,81.00
2018-07-09T20:44:46.358Z,81.10
2018-07-09T20:46:47.611Z,81.00
2018-07-09T20:48:49.159Z,81.20
2018-07-09T20:50:50.438Z,80.80
2018-07-09T20:52:51.681Z,80.30
2018-07-09T20:54:52.919Z,80.40
2018-07-09T20:56:54.186Z,80.30
2018-07-09T20:58:55.428Z,80.30
2018-07-09T21:00:56.678Z,80.00
2018-07-09T21:02:58.017Z,79.80
2018-07-09T21:04:59.237Z,79.70
2018-07-09T21:07:01.414Z,80.00
2018-07-09T21:09:03.338Z,80.80
2018-07-09T21:11:04.575Z,81.20
2018-07-09T21:13:05.840Z,81.20
2018-07-09T21:15:07.158Z,80.50
2018-07-09T21:17:08.342Z,80.70
2018-07-09T21:19:09.927Z,81.10
2018-07-09T21:21:11.173Z,81.10
2018-07-09T21:23:12.394Z,81.20
2018-07-09T21:25:14.437Z,81.60
2018-07-09T21:27:15.685Z,81.60
2018-07-09T21:29:17.193Z,81.90
2018-07-09T21:31:18.601Z,81.40
2018-07-09T21:33:19.842Z,81.60
2018-07-09T21:35:21.091Z,82.30
2018-07-09T21:37:22.376Z,83.20
2018-07-09T21:43:58.376Z,84.20
2018-07-09T21:45:59.643Z,83.80
2018-07-09T21:48:10.550Z,84.30
2018-07-09T21:50:02.186Z,84.30
2018-07-09T21:52:03.471Z,84.70
2018-07-09T21:54:04.774Z,84.90
2018-07-09T21:56:14.079Z,85.70
2018-07-09T21:58:15.294Z,86.00
2018-07-09T22:00:23.136Z,86.10
2018-07-09T22:02:24.544Z,86.20
2018-07-09T22:04:25.733Z,86.70
2018-07-09T22:06:26.933Z,86.70
2018-07-09T22:08:28.146Z,87.40
2018-07-09T22:10:29.366Z,87.60
2018-07-09T22:12:30.553Z,87.50
2018-07-09T22:14:31.758Z,87.60
2018-07-09T22:16:32.981Z,88.00
2018-07-09T22:18:34.202Z,87.80
2018-07-09T22:20:35.396Z,88.20
2018-07-09T22:22:36.602Z,88.20
2018-07-09T22:27:15.746Z,88.10
2018-07-09T22:29:16.938Z,88.30
2018-07-09T22:31:19.045Z,88.20
2018-07-09T22:33:21.127Z,88.50
2018-07-09T22:35:23.226Z,88.80
2018-07-09T22:37:25.349Z,88.50
2018-07-09T22:39:27.705Z,88.70
2018-07-09T22:41:29.782Z,89.10
2018-07-09T22:43:43.411Z,89.30
2018-07-09T22:45:45.609Z,89.30
2018-07-09T22:47:47.710Z,89.60
2018-07-09T22:49:49.770Z,89.90
2018-07-09T22:51:51.858Z,89.70
2018-07-09T22:53:53.925Z,90.30
2018-07-09T22:56:05.393Z,90.30
2018-07-09T22:58:07.477Z,90.70
2018-07-09T23:00:10.342Z,90.90
2018-07-09T23:02:12.458Z,90.90
2018-07-09T23:04:14.533Z,91.40
2018-07-09T23:06:16.605Z,91.70
2018-07-09T23:08:18.678Z,92.10
2018-07-09T23:12:54.164Z,91.60
2018-07-09T23:15:34.385Z,91.30
2018-07-09T23:17:47.825Z,91.80
2018-07-09T23:22:04.294Z,91.30
2018-07-09T23:24:05.491Z,91.90
2018-07-09T23:26:06.699Z,92.00
2018-07-09T23:28:07.907Z,92.40
2018-07-09T23:30:09.106Z,93.00
2018-07-09T23:32:10.307Z,93.10
2018-07-09T23:34:11.517Z,92.70
2018-07-09T23:36:12.711Z,93.20
2018-07-09T23:38:14.005Z,93.60
2018-07-09T23:40:15.218Z,93.80
2018-07-09T23:42:16.498Z,94.10
2018-07-09T23:44:17.621Z,94.20
2018-07-09T23:46:18.857Z,94.00
2018-07-09T23:48:20.326Z,94.00
2018-07-09T23:50:21.514Z,93.50
2018-07-09T23:52:22.717Z,93.80
2018-07-09T23:54:23.922Z,93.40
2018-07-09T23:59:43.414Z,93.60
